createdAt,value
2023-04-10T00:04:52.255Z,0
2023-04-10T00:09:51.762Z,0
2023-04-10T00:14:51.833Z,0
2023-04-10T00:19:52.090Z,0
2023-04-10T00:24:51.843Z,0
2023-04-10T00:29:51.604Z,0
2023-04-10T00:34:52.176Z,0
2023-04-10T00:39:51.916Z,0
2023-04-10T00:44:52.008Z,0
2023-04-10T00:49:51.608Z,0
2023-04-10T00:54:52.081Z,0
2023-04-10T00:59:51.804Z,0
2023-04-10T01:04:51.653Z,0
2023-04-10T01:09:51.640Z,0
2023-04-10T01:14:51.700Z,0
2023-04-10T01:19:57.717Z,0
2023-04-10T01:24:51.608Z,0
2023-04-10T01:29:51.789Z,0
2023-04-10T01:34:53.710Z,0
2023-04-10T01:39:54.461Z,0
2023-04-10T01:44:51.852Z,0
2023-04-10T01:49:51.885Z,0
2023-04-10T01:54:51.864Z,0
2023-04-10T01:59:51.947Z,0
2023-04-10T02:04:52.219Z,0
2023-04-10T02:09:57.354Z,0
2023-04-10T02:14:52.518Z,0
2023-04-10T02:19:51.705Z,0
2023-04-10T02:24:51.693Z,0
2023-04-10T02:29:51.845Z,0
2023-04-10T02:34:51.557Z,0
2023-04-10T02:39:51.598Z,0
2023-04-10T02:44:51.462Z,0
2023-04-10T02:49:51.837Z,0
2023-04-10T02:54:51.454Z,0
2023-04-10T02:59:52.168Z,0
2023-04-10T03:04:51.854Z,0
2023-04-10T03:09:51.909Z,0
2023-04-10T03:14:51.623Z,0
2023-04-10T03:19:52.254Z,0
2023-04-10T03:24:51.494Z,0
2023-04-10T03:29:51.419Z,0
2023-04-10T03:34:51.723Z,0
2023-04-10T03:39:51.824Z,0
2023-04-10T03:44:51.911Z,0
2023-04-10T03:49:51.611Z,0
2023-04-10T03:54:51.620Z,0
2023-04-10T03:59:51.490Z,0
2023-04-10T04:04:51.792Z,0
2023-04-10T04:09:51.715Z,0
2023-04-10T04:14:51.528Z,0
2023-04-10T04:19:51.782Z,0
2023-04-10T04:24:51.793Z,0
2023-04-10T04:29:51.362Z,0
2023-04-10T04:34:51.737Z,0
2023-04-10T04:39:51.833Z,0
2023-04-10T04:44:51.434Z,0
2023-04-10T04:49:51.692Z,0
2023-04-10T04:54:51.514Z,0
2023-04-10T04:59:51.562Z,0.3
2023-04-10T05:04:51.443Z,0.8
2023-04-10T05:09:51.607Z,1.8
2023-04-10T05:14:51.608Z,3.2
2023-04-10T05:19:51.597Z,5
2023-04-10T05:24:51.665Z,6.5
2023-04-10T05:29:51.658Z,7.7
2023-04-10T05:34:51.954Z,8.7
2023-04-10T05:39:51.439Z,9.7
2023-04-10T05:44:51.685Z,10.9
2023-04-10T05:49:51.346Z,13.3
2023-04-10T05:54:51.672Z,16.6
2023-04-10T05:59:51.772Z,18.4
2023-04-10T06:04:51.783Z,19.6
2023-04-10T06:09:51.347Z,21.2
2023-04-10T06:14:51.834Z,23.4
2023-04-10T06:19:51.708Z,25.3
2023-04-10T06:24:51.697Z,27.7
2023-04-10T06:29:51.529Z,30.2
2023-04-10T06:34:51.524Z,33
2023-04-10T06:39:51.868Z,34.3
2023-04-10T06:44:51.450Z,35.1
2023-04-10T06:49:51.389Z,37.5
2023-04-10T06:54:51.454Z,42
2023-04-10T06:59:51.507Z,48.2
2023-04-10T07:04:51.515Z,54.8
2023-04-10T07:09:51.322Z,60.8
2023-04-10T07:14:51.323Z,63.6
2023-04-10T07:19:51.685Z,67.4
2023-04-10T07:24:51.344Z,77.4
2023-04-10T07:29:51.654Z,90.6
2023-04-10T07:34:51.318Z,98
2023-04-10T07:39:51.392Z,94
2023-04-10T07:44:51.548Z,86.4
2023-04-10T07:49:51.590Z,80.5
2023-04-10T07:54:51.316Z,78.5
2023-04-10T07:59:51.900Z,81.8
2023-04-10T08:04:51.620Z,89.7
2023-04-10T08:09:51.606Z,99.5
2023-04-10T08:14:51.274Z,107.8
2023-04-10T08:19:51.266Z,108.4
2023-04-10T08:24:51.477Z,108.1
2023-04-10T08:29:51.497Z,103.5
2023-04-10T08:34:51.575Z,93.2
2023-04-10T08:39:51.871Z,84.8
2023-04-10T08:44:51.764Z,84.2
2023-04-10T08:49:51.529Z,84.5
2023-04-10T08:54:53.398Z,88
2023-04-10T08:59:51.865Z,87.3
2023-04-10T09:04:51.699Z,82.5
2023-04-10T09:09:51.921Z,80.9
2023-04-10T09:14:51.473Z,88.2
2023-04-10T09:19:51.253Z,92.6
2023-04-10T09:24:51.711Z,94.7
2023-04-10T09:29:51.179Z,102.9
2023-04-10T09:34:51.384Z,108.2
2023-04-10T09:39:51.761Z,121.1
2023-04-10T09:44:54.179Z,129.1
2023-04-10T09:49:51.278Z,133.9
2023-04-10T09:54:51.330Z,132
2023-04-10T09:59:52.144Z,131.4
2023-04-10T10:04:51.496Z,130.9
2023-04-10T10:09:51.271Z,132.4
2023-04-10T10:14:53.443Z,133.7
2023-04-10T10:19:54.890Z,140
2023-04-10T10:24:52.187Z,154.3
2023-04-10T10:29:51.405Z,154.9
2023-04-10T10:34:51.909Z,148.8
2023-04-10T10:39:51.300Z,155.8
2023-04-10T10:44:57.647Z,166.6
2023-04-10T10:49:52.499Z,165.2
2023-04-10T10:54:59.097Z,164.7
2023-04-10T10:59:51.441Z,169.1
2023-04-10T11:04:51.404Z,177.3
2023-04-10T11:09:52.409Z,199.4
2023-04-10T11:14:51.222Z,210.4
2023-04-10T11:19:59.394Z,232.1
2023-04-10T11:24:53.674Z,235.9
2023-04-10T11:29:51.180Z,238.7
2023-04-10T11:34:51.490Z,247.5
2023-04-10T11:39:51.057Z,230.4
2023-04-10T11:44:51.368Z,206
2023-04-10T11:49:51.277Z,198.4
2023-04-10T11:54:51.162Z,183.5
2023-04-10T11:59:51.002Z,179.2
2023-04-10T12:04:51.211Z,152.1
2023-04-10T12:09:51.161Z,131.3
2023-04-10T12:14:51.119Z,115.8
2023-04-10T12:19:51.260Z,101.1
2023-04-10T12:24:51.147Z,96.4
2023-04-10T12:29:51.177Z,83.8
2023-04-10T12:34:52.047Z,67.8
2023-04-10T12:39:51.154Z,56.8
2023-04-10T12:44:51.003Z,48.7
2023-04-10T12:49:51.380Z,45.1
2023-04-10T12:54:51.020Z,43.7
2023-04-10T12:59:51.445Z,43.5
2023-04-10T13:04:50.999Z,42.8
2023-04-10T13:09:51.171Z,46.7
2023-04-10T13:14:51.287Z,44.6
2023-04-10T13:19:51.313Z,46.2
2023-04-10T13:24:51.299Z,41.3
2023-04-10T13:29:51.018Z,35.8
2023-04-10T13:34:51.268Z,29.4
2023-04-10T13:39:51.440Z,28.6
2023-04-10T13:44:51.281Z,33.5
2023-04-10T13:49:51.517Z,33.2
2023-04-10T13:54:51.006Z,34.8
2023-04-10T13:59:51.418Z,32.5
2023-04-10T14:04:51.057Z,40.1
2023-04-10T14:09:51.341Z,43.8
2023-04-10T14:14:51.226Z,34.9
2023-04-10T14:19:51.581Z,32.3
2023-04-10T14:24:54.355Z,31.2
2023-04-10T14:29:54.924Z,39.3
2023-04-10T14:34:51.092Z,36.1
2023-04-10T14:39:51.107Z,29.6
2023-04-10T14:44:51.251Z,24.3
2023-04-10T14:49:51.510Z,22.9
2023-04-10T14:54:51.139Z,18.6
2023-04-10T14:59:51.249Z,19.8
2023-04-10T15:04:51.023Z,18.2
2023-04-10T15:09:54.861Z,20.6
2023-04-10T15:14:51.305Z,22
2023-04-10T15:19:50.989Z,21.2
2023-04-10T15:24:51.271Z,18.1
2023-04-10T15:29:50.892Z,16.3
2023-04-10T15:34:51.058Z,19.9
2023-04-10T15:39:51.089Z,18.3
2023-04-10T15:44:50.835Z,17.4
2023-04-10T15:49:50.936Z,11.8
2023-04-10T15:54:50.842Z,12.9
2023-04-10T15:59:51.011Z,16.7
2023-04-10T16:04:51.125Z,25.5
2023-04-10T16:09:50.808Z,25.8
2023-04-10T16:14:50.987Z,15
2023-04-10T16:19:51.406Z,10.8
2023-04-10T16:24:53.539Z,9.3
2023-04-10T16:29:50.877Z,11.4
2023-04-10T16:34:51.088Z,13.9
2023-04-10T16:39:51.100Z,10.1
2023-04-10T16:44:50.983Z,6.5
2023-04-10T16:49:51.177Z,6.8
2023-04-10T16:54:51.041Z,6.2
2023-04-10T16:59:50.821Z,6.8
2023-04-10T17:04:52.945Z,6.6
2023-04-10T17:09:51.086Z,8
2023-04-10T17:14:51.457Z,5.8
2023-04-10T17:19:51.096Z,6.7
2023-04-10T17:24:51.064Z,8.4
2023-04-10T17:29:51.116Z,8
2023-04-10T17:34:51.072Z,7.1
2023-04-10T17:39:50.964Z,6.4
2023-04-10T17:44:51.204Z,5.2
2023-04-10T17:49:51.042Z,3.4
2023-04-10T17:54:50.778Z,2.1
2023-04-10T17:59:51.015Z,1.2
2023-04-10T18:04:51.366Z,1.5
2023-04-10T18:09:51.240Z,1.9
2023-04-10T18:14:51.187Z,1.3
2023-04-10T18:19:51.089Z,1.5
2023-04-10T18:24:50.859Z,0.8
2023-04-10T18:29:50.950Z,0.3
2023-04-10T18:34:50.744Z,0.1
2023-04-10T18:39:50.867Z,0
2023-04-10T18:44:50.662Z,0
2023-04-10T18:49:50.896Z,0
2023-04-10T18:54:51.028Z,0
2023-04-10T18:59:50.690Z,0
2023-04-10T19:04:50.793Z,0
2023-04-10T19:09:50.999Z,0
2023-04-10T19:14:51.046Z,0
2023-04-10T19:19:51.180Z,0
2023-04-10T19:24:51.227Z,0
2023-04-10T19:29:51.211Z,0
2023-04-10T19:34:50.858Z,0
2023-04-10T19:39:50.689Z,0
2023-04-10T19:44:50.873Z,0
2023-04-10T19:49:51.203Z,0
2023-04-10T19:54:50.835Z,0
2023-04-10T19:59:50.650Z,0
2023-04-10T20:04:50.770Z,0
2023-04-10T20:09:50.694Z,0
2023-04-10T20:14:50.611Z,0
2023-04-10T20:19:51.066Z,0
2023-04-10T20:24:50.677Z,0
2023-04-10T20:29:51.119Z,0
2023-04-10T20:34:50.926Z,0
2023-04-10T20:40:00.369Z,0
2023-04-10T20:45:00.352Z,0
2023-04-10T20:50:00.771Z,0
2023-04-10T20:55:00.553Z,0
2023-04-10T21:00:00.480Z,0
2023-04-10T21:05:00.491Z,0
2023-04-10T21:10:00.661Z,0
2023-04-10T21:15:00.328Z,0
2023-04-10T21:20:00.485Z,0
2023-04-10T21:25:00.541Z,0
2023-04-10T21:30:00.268Z,0
2023-04-10T21:35:00.536Z,0
2023-04-10T21:40:00.385Z,0
2023-04-10T21:45:00.366Z,0
2023-04-10T21:50:00.342Z,0
2023-04-10T21:55:00.591Z,0
2023-04-10T22:00:01.369Z,0
2023-04-10T22:05:00.303Z,0
2023-04-10T22:10:00.738Z,0
2023-04-10T22:15:00.416Z,0
2023-04-10T22:20:01.229Z,0
2023-04-10T22:25:00.231Z,0
2023-04-10T22:30:03.941Z,0
2023-04-10T22:35:00.351Z,0
2023-04-10T22:40:00.473Z,0
2023-04-10T22:45:00.372Z,0
2023-04-10T22:50:00.547Z,0
2023-04-10T22:55:00.362Z,0
2023-04-10T23:00:01.029Z,0
2023-04-10T23:05:00.148Z,0
2023-04-10T23:10:00.335Z,0
2023-04-10T23:15:00.390Z,0
2023-04-10T23:20:00.838Z,0
2023-04-10T23:25:00.195Z,0
2023-04-10T23:30:00.366Z,0
2023-04-10T23:35:00.593Z,0
2023-04-10T23:40:00.544Z,0
2023-04-10T23:45:00.388Z,0
2023-04-10T23:50:00.776Z,0
2023-04-10T23:55:00.626Z,0
